askfred.net alexa rank chart, askfred.net alexa rank daily changes

askfred.net alexa rank chart, askfred.net alexa rank daily changes

askfred.net
Actual rank:
159 181

RANK HISTORY

Date Rank Diff
2017/12/16 159 181 +109
2017/12/15 159 072 +4 503
2017/12/14 154 569 +3 039
2017/12/13 151 530 +1 779
2017/12/12 149 751 -1 550
2017/12/11 151 301 +2 097
2017/12/10 149 204 +1 656
2017/12/09 147 548 +3 254
2017/12/08 144 294 +1 307
2017/12/07 142 987 +1 366
2017/12/06 141 621 -479
2017/12/05 142 100 -4 438
2017/12/04 146 538 -1 647
2017/12/03 148 185 -2 766
2017/12/02 150 951 -1 074
2017/12/01 152 025 +1 309
2017/11/30 150 716 -312
2017/11/29 151 028 -1 135
2017/11/28 152 163 +777
2017/11/27 151 386 -2 390
2017/11/26 153 776 -185
2017/11/25 153 961 +5 340
2017/11/24 148 621 -1 075
2017/11/23 149 696 +3 150
2017/11/22 146 546 +4 162
2017/11/21 142 384 -3 145
2017/11/20 145 529 -494
2017/11/19 146 023 -837
2017/11/18 146 860 +510
2017/11/17 146 350 -327
2017/11/16 146 677 -54
2017/11/15 146 731 -4 141
2017/11/14 150 872 -1 113
2017/11/13 151 985 -1 643
2017/11/12 153 628 +1 994
2017/11/11 151 634 +1 655
2017/11/10 149 979 -2 330
2017/11/09 152 309 -2 959
2017/11/08 155 268 -1 856
2017/11/07 157 124 +1 507
2017/11/06 155 617 +871
2017/11/05 154 746 +3 081
2017/11/04 151 665 +2 246
2017/11/03 149 419 +4 286
2017/11/02 145 133 +3 224
2017/11/01 141 909 +609
2017/10/31 141 300 +930
2017/10/30 140 370 -764
2017/10/29 141 134 +645
2017/10/28 140 489 -1 409
2017/10/27 141 898 +3 206
2017/10/26 138 692 +1 775
2017/10/25 136 917 -1 887
2017/10/24 138 804 +3 332
2017/10/23 135 472 +638
2017/10/22 134 834 -2 832
2017/10/21 137 666 +1 105
2017/10/20 136 561 +2 769
2017/10/19 133 792 +1 943
2017/10/18 131 849 -663
2017/10/17 132 512

WIDGET FOR YOUR SITE

DOMAINS WITH THE NEAREST RANK

Domain Rank
shimmercat.business 159 176
bannerbuzz.com 159 177
leilao.jp 159 178
jahazchin.com 159 179
oldtimecandy.com 159 180
askfred.net 159 181
lorempixel.com 159 182
starrfmonline.com 159 183
huarenjie.net 159 184
urduitacademy.com 159 185
dotmailer-pages.com 159 186

DOMAINS WITH THE NEAREST RANK BY TLD .net

Domain Rank
poweregg.net 159 108
cuevana3.net 159 124
bloodshed.net 159 132
sonokinetic.net 159 153
nudeyoga.net 159 162
askfred.net 159 181
huarenjie.net 159 184
redkid.net 159 226
jordansmenu.net 159 231
signification-prenom.net 159 238
historyforkids.net 159 265